sensor_id;sensor_type;location;lat;lon;timestamp;P1;durP1;ratioP1;P2;durP2;ratioP2
77573;SDS011;66710;48.868;9.080;2023-02-28T00:01:06;4.17;;;2.30;;
77573;SDS011;66710;48.868;9.080;2023-02-28T00:03:32;2.10;;;1.17;;
77573;SDS011;66710;48.868;9.080;2023-02-28T00:06:00;1.90;;;1.20;;
77573;SDS011;66710;48.868;9.080;2023-02-28T00:08:29;4.03;;;1.73;;
77573;SDS011;66710;48.868;9.080;2023-02-28T00:10:55;2.60;;;1.40;;
77573;SDS011;66710;48.868;9.080;2023-02-28T00:13:20;6.10;;;2.07;;
77573;SDS011;66710;48.868;9.080;2023-02-28T00:15:45;3.63;;;1.67;;
77573;SDS011;66710;48.868;9.080;2023-02-28T00:18:11;3.00;;;1.60;;
77573;SDS011;66710;48.868;9.080;2023-02-28T00:20:36;4.50;;;1.47;;
77573;SDS011;66710;48.868;9.080;2023-02-28T00:23:02;3.97;;;2.10;;
77573;SDS011;66710;48.868;9.080;2023-02-28T00:25:28;1.10;;;0.90;;
77573;SDS011;66710;48.868;9.080;2023-02-28T00:27:53;3.10;;;1.53;;
77573;SDS011;66710;48.868;9.080;2023-02-28T00:30:19;2.83;;;1.33;;
77573;SDS011;66710;48.868;9.080;2023-02-28T00:32:46;2.60;;;1.80;;
77573;SDS011;66710;48.868;9.080;2023-02-28T00:35:12;6.87;;;1.57;;
77573;SDS011;66710;48.868;9.080;2023-02-28T00:37:38;2.63;;;1.33;;
77573;SDS011;66710;48.868;9.080;2023-02-28T00:40:03;5.30;;;1.90;;
77573;SDS011;66710;48.868;9.080;2023-02-28T00:42:32;2.17;;;1.50;;
77573;SDS011;66710;48.868;9.080;2023-02-28T00:44:58;2.70;;;1.57;;
77573;SDS011;66710;48.868;9.080;2023-02-28T00:47:23;2.37;;;1.27;;
77573;SDS011;66710;48.868;9.080;2023-02-28T00:49:49;3.80;;;2.30;;
77573;SDS011;66710;48.868;9.080;2023-02-28T00:52:14;2.17;;;1.20;;
77573;SDS011;66710;48.868;9.080;2023-02-28T00:54:39;2.77;;;1.27;;
77573;SDS011;66710;48.868;9.080;2023-02-28T00:57:04;3.83;;;2.37;;
77573;SDS011;66710;48.868;9.080;2023-02-28T00:59:30;2.83;;;1.30;;
77573;SDS011;66710;48.868;9.080;2023-02-28T01:01:55;2.63;;;1.47;;
77573;SDS011;66710;48.868;9.080;2023-02-28T01:04:21;2.83;;;1.53;;
77573;SDS011;66710;48.868;9.080;2023-02-28T01:06:46;4.87;;;2.17;;
77573;SDS011;66710;48.868;9.080;2023-02-28T01:09:12;2.87;;;1.60;;
77573;SDS011;66710;48.868;9.080;2023-02-28T01:11:37;4.67;;;2.50;;
77573;SDS011;66710;48.868;9.080;2023-02-28T01:14:03;4.97;;;1.97;;
77573;SDS011;66710;48.868;9.080;2023-02-28T01:16:29;4.00;;;2.17;;
77573;SDS011;66710;48.868;9.080;2023-02-28T01:18:54;6.30;;;2.80;;
77573;SDS011;66710;48.868;9.080;2023-02-28T01:21:20;5.03;;;2.60;;
77573;SDS011;66710;48.868;9.080;2023-02-28T01:23:47;5.47;;;2.67;;
77573;SDS011;66710;48.868;9.080;2023-02-28T01:26:19;4.07;;;2.33;;
77573;SDS011;66710;48.868;9.080;2023-02-28T01:28:46;3.23;;;1.77;;
77573;SDS011;66710;48.868;9.080;2023-02-28T01:31:13;1.27;;;0.93;;
77573;SDS011;66710;48.868;9.080;2023-02-28T01:33:39;5.10;;;2.97;;
77573;SDS011;66710;48.868;9.080;2023-02-28T01:36:06;4.27;;;2.37;;
77573;SDS011;66710;48.868;9.080;2023-02-28T01:38:34;4.57;;;2.20;;
77573;SDS011;66710;48.868;9.080;2023-02-28T01:40:59;6.20;;;2.47;;
77573;SDS011;66710;48.868;9.080;2023-02-28T01:43:26;4.90;;;3.00;;
77573;SDS011;66710;48.868;9.080;2023-02-28T01:45:53;5.47;;;2.80;;
77573;SDS011;66710;48.868;9.080;2023-02-28T01:48:25;5.13;;;2.83;;
77573;SDS011;66710;48.868;9.080;2023-02-28T01:50:52;5.70;;;2.60;;
77573;SDS011;66710;48.868;9.080;2023-02-28T01:53:22;2.43;;;1.67;;
77573;SDS011;66710;48.868;9.080;2023-02-28T01:55:52;5.40;;;2.40;;
77573;SDS011;66710;48.868;9.080;2023-02-28T01:58:19;4.67;;;1.30;;
77573;SDS011;66710;48.868;9.080;2023-02-28T02:00:45;4.60;;;1.67;;
77573;SDS011;66710;48.868;9.080;2023-02-28T02:03:13;4.40;;;2.70;;
77573;SDS011;66710;48.868;9.080;2023-02-28T02:05:44;3.70;;;1.87;;
77573;SDS011;66710;48.868;9.080;2023-02-28T02:08:13;4.07;;;2.27;;
77573;SDS011;66710;48.868;9.080;2023-02-28T02:10:43;2.63;;;1.83;;
77573;SDS011;66710;48.868;9.080;2023-02-28T02:19:15;6.10;;;2.73;;
77573;SDS011;66710;48.868;9.080;2023-02-28T02:24:36;4.90;;;2.60;;
77573;SDS011;66710;48.868;9.080;2023-02-28T02:27:25;4.50;;;2.70;;
77573;SDS011;66710;48.868;9.080;2023-02-28T02:47:30;2.30;;;1.47;;
77573;SDS011;66710;48.868;9.080;2023-02-28T02:49:58;3.23;;;1.77;;
77573;SDS011;66710;48.868;9.080;2023-02-28T02:52:34;2.90;;;1.77;;
77573;SDS011;66710;48.868;9.080;2023-02-28T02:55:05;6.37;;;3.23;;
77573;SDS011;66710;48.868;9.080;2023-02-28T03:00:11;2.53;;;1.23;;
77573;SDS011;66710;48.868;9.080;2023-02-28T03:02:39;2.20;;;1.27;;
77573;SDS011;66710;48.868;9.080;2023-02-28T03:05:07;4.00;;;2.10;;
77573;SDS011;66710;48.868;9.080;2023-02-28T03:07:39;4.83;;;2.90;;
77573;SDS011;66710;48.868;9.080;2023-02-28T03:10:25;4.63;;;2.67;;
77573;SDS011;66710;48.868;9.080;2023-02-28T03:12:53;2.53;;;1.43;;
77573;SDS011;66710;48.868;9.080;2023-02-28T03:15:32;5.83;;;2.57;;
77573;SDS011;66710;48.868;9.080;2023-02-28T03:18:15;5.60;;;3.30;;
77573;SDS011;66710;48.868;9.080;2023-02-28T03:23:23;5.25;;;2.78;;
77573;SDS011;66710;48.868;9.080;2023-02-28T03:28:56;6.53;;;2.77;;
77573;SDS011;66710;48.868;9.080;2023-02-28T03:34:17;5.57;;;2.47;;
77573;SDS011;66710;48.868;9.080;2023-02-28T03:36:49;5.80;;;3.13;;
77573;SDS011;66710;48.868;9.080;2023-02-28T03:39:53;5.00;;;2.03;;
77573;SDS011;66710;48.868;9.080;2023-02-28T03:42:41;2.60;;;1.50;;
77573;SDS011;66710;48.868;9.080;2023-02-28T03:45:13;1.93;;;1.07;;
77573;SDS011;66710;48.868;9.080;2023-02-28T03:47:49;8.87;;;1.93;;
77573;SDS011;66710;48.868;9.080;2023-02-28T03:50:22;5.80;;;2.73;;
77573;SDS011;66710;48.868;9.080;2023-02-28T03:52:57;4.80;;;2.47;;
77573;SDS011;66710;48.868;9.080;2023-02-28T03:55:30;5.07;;;1.90;;
77573;SDS011;66710;48.868;9.080;2023-02-28T03:58:05;6.47;;;2.50;;
77573;SDS011;66710;48.868;9.080;2023-02-28T04:00:40;1.87;;;1.57;;
77573;SDS011;66710;48.868;9.080;2023-02-28T04:03:10;1.98;;;1.27;;
77573;SDS011;66710;48.868;9.080;2023-02-28T04:05:44;4.27;;;2.37;;
77573;SDS011;66710;48.868;9.080;2023-02-28T04:08:14;1.83;;;1.23;;
77573;SDS011;66710;48.868;9.080;2023-02-28T04:10:40;13.23;;;4.90;;
77573;SDS011;66710;48.868;9.080;2023-02-28T04:13:08;8.40;;;4.30;;
77573;SDS011;66710;48.868;9.080;2023-02-28T04:15:33;2.47;;;1.17;;
77573;SDS011;66710;48.868;9.080;2023-02-28T04:17:58;4.00;;;2.57;;
77573;SDS011;66710;48.868;9.080;2023-02-28T04:20:24;3.17;;;1.90;;
77573;SDS011;66710;48.868;9.080;2023-02-28T04:22:49;4.43;;;2.30;;
77573;SDS011;66710;48.868;9.080;2023-02-28T04:25:14;5.47;;;3.10;;
77573;SDS011;66710;48.868;9.080;2023-02-28T04:27:40;5.50;;;2.90;;
77573;SDS011;66710;48.868;9.080;2023-02-28T04:30:05;6.97;;;2.63;;
77573;SDS011;66710;48.868;9.080;2023-02-28T04:32:31;4.93;;;2.67;;
77573;SDS011;66710;48.868;9.080;2023-02-28T04:34:56;4.53;;;2.67;;
77573;SDS011;66710;48.868;9.080;2023-02-28T04:37:22;4.00;;;2.37;;
77573;SDS011;66710;48.868;9.080;2023-02-28T04:39:52;4.17;;;1.93;;
77573;SDS011;66710;48.868;9.080;2023-02-28T04:42:18;6.53;;;2.93;;
77573;SDS011;66710;48.868;9.080;2023-02-28T04:44:43;4.30;;;2.93;;
77573;SDS011;66710;48.868;9.080;2023-02-28T04:47:08;7.07;;;2.80;;
77573;SDS011;66710;48.868;9.080;2023-02-28T04:49:33;3.23;;;2.07;;
77573;SDS011;66710;48.868;9.080;2023-02-28T04:51:59;6.07;;;2.33;;
77573;SDS011;66710;48.868;9.080;2023-02-28T04:54:24;7.53;;;3.73;;
77573;SDS011;66710;48.868;9.080;2023-02-28T04:56:49;5.00;;;2.33;;
77573;SDS011;66710;48.868;9.080;2023-02-28T04:59:15;3.53;;;1.73;;
77573;SDS011;66710;48.868;9.080;2023-02-28T05:01:40;2.40;;;1.73;;
77573;SDS011;66710;48.868;9.080;2023-02-28T05:04:05;7.67;;;3.27;;
77573;SDS011;66710;48.868;9.080;2023-02-28T05:06:31;5.63;;;3.00;;
77573;SDS011;66710;48.868;9.080;2023-02-28T05:08:58;5.10;;;2.97;;
77573;SDS011;66710;48.868;9.080;2023-02-28T05:11:27;5.63;;;3.23;;
77573;SDS011;66710;48.868;9.080;2023-02-28T05:13:58;4.38;;;2.45;;
77573;SDS011;66710;48.868;9.080;2023-02-28T05:16:23;3.43;;;1.87;;
77573;SDS011;66710;48.868;9.080;2023-02-28T05:18:49;6.23;;;2.97;;
77573;SDS011;66710;48.868;9.080;2023-02-28T05:21:28;4.10;;;2.30;;
77573;SDS011;66710;48.868;9.080;2023-02-28T05:23:56;4.70;;;2.37;;
77573;SDS011;66710;48.868;9.080;2023-02-28T05:26:25;5.13;;;2.93;;
77573;SDS011;66710;48.868;9.080;2023-02-28T05:28:51;7.10;;;2.85;;
77573;SDS011;66710;48.868;9.080;2023-02-28T05:31:16;5.03;;;2.60;;
77573;SDS011;66710;48.868;9.080;2023-02-28T05:33:42;6.83;;;3.40;;
77573;SDS011;66710;48.868;9.080;2023-02-28T05:36:07;5.93;;;3.40;;
77573;SDS011;66710;48.868;9.080;2023-02-28T05:38:32;3.10;;;1.50;;
77573;SDS011;66710;48.868;9.080;2023-02-28T05:40:58;8.03;;;3.00;;
77573;SDS011;66710;48.868;9.080;2023-02-28T05:43:24;3.47;;;2.00;;
77573;SDS011;66710;48.868;9.080;2023-02-28T05:45:50;7.13;;;3.30;;
77573;SDS011;66710;48.868;9.080;2023-02-28T05:48:15;8.70;;;4.33;;
77573;SDS011;66710;48.868;9.080;2023-02-28T05:50:41;5.77;;;2.83;;
77573;SDS011;66710;48.868;9.080;2023-02-28T05:53:07;5.03;;;2.25;;
77573;SDS011;66710;48.868;9.080;2023-02-28T05:55:33;5.57;;;3.07;;
77573;SDS011;66710;48.868;9.080;2023-02-28T05:57:58;6.40;;;2.33;;
77573;SDS011;66710;48.868;9.080;2023-02-28T06:00:23;4.03;;;2.17;;
77573;SDS011;66710;48.868;9.080;2023-02-28T06:02:49;5.90;;;2.63;;
77573;SDS011;66710;48.868;9.080;2023-02-28T06:05:15;5.30;;;2.23;;
77573;SDS011;66710;48.868;9.080;2023-02-28T06:07:42;5.87;;;2.50;;
77573;SDS011;66710;48.868;9.080;2023-02-28T06:10:08;7.77;;;3.77;;
77573;SDS011;66710;48.868;9.080;2023-02-28T06:12:34;8.77;;;3.60;;
77573;SDS011;66710;48.868;9.080;2023-02-28T06:15:00;6.60;;;2.73;;
77573;SDS011;66710;48.868;9.080;2023-02-28T06:17:25;7.60;;;3.23;;
77573;SDS011;66710;48.868;9.080;2023-02-28T06:19:50;7.03;;;4.00;;
77573;SDS011;66710;48.868;9.080;2023-02-28T06:22:16;4.80;;;2.55;;
77573;SDS011;66710;48.868;9.080;2023-02-28T06:24:41;7.93;;;3.58;;
77573;SDS011;66710;48.868;9.080;2023-02-28T06:27:06;5.93;;;3.10;;
77573;SDS011;66710;48.868;9.080;2023-02-28T06:29:32;7.33;;;4.00;;
77573;SDS011;66710;48.868;9.080;2023-02-28T06:31:58;8.33;;;3.97;;
77573;SDS011;66710;48.868;9.080;2023-02-28T06:34:23;9.63;;;3.77;;
77573;SDS011;66710;48.868;9.080;2023-02-28T06:36:49;10.07;;;4.17;;
77573;SDS011;66710;48.868;9.080;2023-02-28T06:39:15;5.13;;;2.57;;
77573;SDS011;66710;48.868;9.080;2023-02-28T06:41:41;7.80;;;3.33;;
77573;SDS011;66710;48.868;9.080;2023-02-28T06:44:12;8.43;;;4.07;;
77573;SDS011;66710;48.868;9.080;2023-02-28T06:46:42;7.00;;;3.50;;
77573;SDS011;66710;48.868;9.080;2023-02-28T06:49:09;9.17;;;3.37;;
77573;SDS011;66710;48.868;9.080;2023-02-28T06:51:35;5.07;;;2.20;;
77573;SDS011;66710;48.868;9.080;2023-02-28T06:54:04;3.67;;;2.07;;
77573;SDS011;66710;48.868;9.080;2023-02-28T06:56:30;4.57;;;2.33;;
77573;SDS011;66710;48.868;9.080;2023-02-28T06:58:56;7.97;;;3.20;;
77573;SDS011;66710;48.868;9.080;2023-02-28T07:01:21;8.57;;;3.90;;
77573;SDS011;66710;48.868;9.080;2023-02-28T07:03:48;5.33;;;3.03;;
77573;SDS011;66710;48.868;9.080;2023-02-28T07:06:17;9.33;;;3.03;;
77573;SDS011;66710;48.868;9.080;2023-02-28T07:08:47;5.53;;;2.17;;
77573;SDS011;66710;48.868;9.080;2023-02-28T07:11:13;9.00;;;3.87;;
77573;SDS011;66710;48.868;9.080;2023-02-28T07:13:38;3.43;;;2.07;;
77573;SDS011;66710;48.868;9.080;2023-02-28T07:16:04;7.13;;;3.63;;
77573;SDS011;66710;48.868;9.080;2023-02-28T07:18:31;5.60;;;2.87;;
77573;SDS011;66710;48.868;9.080;2023-02-28T07:20:56;7.40;;;3.40;;
77573;SDS011;66710;48.868;9.080;2023-02-28T07:23:22;2.25;;;1.50;;
77573;SDS011;66710;48.868;9.080;2023-02-28T07:25:49;5.30;;;2.63;;
77573;SDS011;66710;48.868;9.080;2023-02-28T07:28:15;4.43;;;2.70;;
77573;SDS011;66710;48.868;9.080;2023-02-28T07:30:40;4.27;;;2.17;;
77573;SDS011;66710;48.868;9.080;2023-02-28T07:33:06;8.07;;;3.03;;
77573;SDS011;66710;48.868;9.080;2023-02-28T07:35:31;8.73;;;2.33;;
77573;SDS011;66710;48.868;9.080;2023-02-28T07:37:57;5.47;;;2.65;;
77573;SDS011;66710;48.868;9.080;2023-02-28T07:40:23;6.90;;;3.92;;
77573;SDS011;66710;48.868;9.080;2023-02-28T07:42:49;7.50;;;3.08;;
77573;SDS011;66710;48.868;9.080;2023-02-28T07:45:15;6.80;;;3.03;;
77573;SDS011;66710;48.868;9.080;2023-02-28T07:47:41;9.43;;;3.17;;
77573;SDS011;66710;48.868;9.080;2023-02-28T07:50:09;5.13;;;3.17;;
77573;SDS011;66710;48.868;9.080;2023-02-28T07:52:36;6.33;;;3.23;;
77573;SDS011;66710;48.868;9.080;2023-02-28T07:55:02;7.50;;;3.97;;
77573;SDS011;66710;48.868;9.080;2023-02-28T07:57:27;5.63;;;3.05;;
77573;SDS011;66710;48.868;9.080;2023-02-28T07:59:53;4.18;;;2.15;;
77573;SDS011;66710;48.868;9.080;2023-02-28T08:02:18;5.90;;;3.40;;
77573;SDS011;66710;48.868;9.080;2023-02-28T08:04:44;4.57;;;2.73;;
77573;SDS011;66710;48.868;9.080;2023-02-28T08:07:09;6.45;;;2.83;;
77573;SDS011;66710;48.868;9.080;2023-02-28T08:09:38;6.90;;;3.42;;
77573;SDS011;66710;48.868;9.080;2023-02-28T08:12:03;7.57;;;3.38;;
77573;SDS011;66710;48.868;9.080;2023-02-28T08:14:29;8.40;;;4.07;;
77573;SDS011;66710;48.868;9.080;2023-02-28T08:16:54;6.95;;;3.53;;
77573;SDS011;66710;48.868;9.080;2023-02-28T08:19:19;9.70;;;4.60;;
77573;SDS011;66710;48.868;9.080;2023-02-28T08:21:45;7.72;;;4.45;;
77573;SDS011;66710;48.868;9.080;2023-02-28T08:24:10;5.13;;;2.85;;
77573;SDS011;66710;48.868;9.080;2023-02-28T08:26:35;5.90;;;2.95;;
77573;SDS011;66710;48.868;9.080;2023-02-28T08:29:00;4.13;;;2.40;;
77573;SDS011;66710;48.868;9.080;2023-02-28T08:31:26;8.15;;;4.00;;
77573;SDS011;66710;48.868;9.080;2023-02-28T08:33:51;5.85;;;3.33;;
77573;SDS011;66710;48.868;9.080;2023-02-28T08:36:18;7.17;;;3.87;;
77573;SDS011;66710;48.868;9.080;2023-02-28T08:38:44;8.40;;;4.35;;
77573;SDS011;66710;48.868;9.080;2023-02-28T08:41:10;12.87;;;4.93;;
77573;SDS011;66710;48.868;9.080;2023-02-28T08:43:36;6.70;;;3.17;;
77573;SDS011;66710;48.868;9.080;2023-02-28T08:46:03;9.55;;;3.85;;
77573;SDS011;66710;48.868;9.080;2023-02-28T08:48:29;6.13;;;3.13;;
77573;SDS011;66710;48.868;9.080;2023-02-28T08:50:56;6.97;;;3.17;;
77573;SDS011;66710;48.868;9.080;2023-02-28T08:53:26;6.80;;;4.03;;
77573;SDS011;66710;48.868;9.080;2023-02-28T08:55:59;8.45;;;4.03;;
77573;SDS011;66710;48.868;9.080;2023-02-28T08:58:25;7.53;;;3.70;;
77573;SDS011;66710;48.868;9.080;2023-02-28T09:00:51;9.13;;;3.17;;
77573;SDS011;66710;48.868;9.080;2023-02-28T09:03:17;9.23;;;3.35;;
77573;SDS011;66710;48.868;9.080;2023-02-28T09:05:51;9.77;;;4.32;;
77573;SDS011;66710;48.868;9.080;2023-02-28T09:08:24;8.10;;;4.47;;
77573;SDS011;66710;48.868;9.080;2023-02-28T09:10:50;9.82;;;4.95;;
77573;SDS011;66710;48.868;9.080;2023-02-28T09:13:16;9.73;;;4.57;;
77573;SDS011;66710;48.868;9.080;2023-02-28T09:15:42;10.43;;;4.28;;
77573;SDS011;66710;48.868;9.080;2023-02-28T09:18:07;8.23;;;4.47;;
77573;SDS011;66710;48.868;9.080;2023-02-28T09:20:32;11.02;;;4.65;;
77573;SDS011;66710;48.868;9.080;2023-02-28T09:22:57;8.13;;;3.45;;
77573;SDS011;66710;48.868;9.080;2023-02-28T09:25:23;8.93;;;4.45;;
77573;SDS011;66710;48.868;9.080;2023-02-28T09:27:48;9.57;;;5.22;;
77573;SDS011;66710;48.868;9.080;2023-02-28T09:30:13;8.93;;;3.72;;
77573;SDS011;66710;48.868;9.080;2023-02-28T09:32:39;9.63;;;4.20;;
77573;SDS011;66710;48.868;9.080;2023-02-28T09:35:04;12.07;;;5.78;;
77573;SDS011;66710;48.868;9.080;2023-02-28T09:37:30;9.10;;;4.90;;
77573;SDS011;66710;48.868;9.080;2023-02-28T09:39:56;8.82;;;4.35;;
77573;SDS011;66710;48.868;9.080;2023-02-28T09:42:23;9.48;;;4.40;;
77573;SDS011;66710;48.868;9.080;2023-02-28T09:44:55;9.93;;;4.65;;
77573;SDS011;66710;48.868;9.080;2023-02-28T09:47:33;12.68;;;5.90;;
77573;SDS011;66710;48.868;9.080;2023-02-28T09:50:12;8.55;;;3.92;;
77573;SDS011;66710;48.868;9.080;2023-02-28T09:52:57;9.98;;;5.35;;
77573;SDS011;66710;48.868;9.080;2023-02-28T09:55:32;11.40;;;5.47;;
77573;SDS011;66710;48.868;9.080;2023-02-28T09:58:02;9.93;;;5.22;;
77573;SDS011;66710;48.868;9.080;2023-02-28T10:03:05;10.55;;;5.20;;
77573;SDS011;66710;48.868;9.080;2023-02-28T10:08:25;6.50;;;2.90;;
77573;SDS011;66710;48.868;9.080;2023-02-28T10:10:58;13.07;;;6.43;;
77573;SDS011;66710;48.868;9.080;2023-02-28T10:16:08;11.07;;;5.53;;
77573;SDS011;66710;48.868;9.080;2023-02-28T10:18:50;12.68;;;5.82;;
77573;SDS011;66710;48.868;9.080;2023-02-28T10:21:21;9.43;;;4.40;;
77573;SDS011;66710;48.868;9.080;2023-02-28T10:24:19;8.00;;;4.10;;
77573;SDS011;66710;48.868;9.080;2023-02-28T10:26:48;4.07;;;2.75;;
77573;SDS011;66710;48.868;9.080;2023-02-28T10:29:17;10.75;;;6.15;;
77573;SDS011;66710;48.868;9.080;2023-02-28T10:31:43;11.15;;;5.45;;
77573;SDS011;66710;48.868;9.080;2023-02-28T10:34:08;9.07;;;4.97;;
77573;SDS011;66710;48.868;9.080;2023-02-28T10:36:37;14.38;;;5.95;;
77573;SDS011;66710;48.868;9.080;2023-02-28T10:39:31;11.20;;;6.28;;
77573;SDS011;66710;48.868;9.080;2023-02-28T10:42:02;12.93;;;5.93;;
77573;SDS011;66710;48.868;9.080;2023-02-28T10:44:28;10.13;;;5.57;;
77573;SDS011;66710;48.868;9.080;2023-02-28T10:46:54;10.85;;;5.90;;
77573;SDS011;66710;48.868;9.080;2023-02-28T10:49:25;9.98;;;5.45;;
77573;SDS011;66710;48.868;9.080;2023-02-28T10:51:56;11.27;;;5.15;;
77573;SDS011;66710;48.868;9.080;2023-02-28T10:54:30;8.25;;;5.10;;
77573;SDS011;66710;48.868;9.080;2023-02-28T10:57:14;11.65;;;6.47;;
77573;SDS011;66710;48.868;9.080;2023-02-28T10:59:45;12.95;;;6.93;;
77573;SDS011;66710;48.868;9.080;2023-02-28T11:02:34;9.80;;;6.43;;
77573;SDS011;66710;48.868;9.080;2023-02-28T11:05:02;10.45;;;5.88;;
77573;SDS011;66710;48.868;9.080;2023-02-28T11:07:50;11.15;;;5.93;;
77573;SDS011;66710;48.868;9.080;2023-02-28T11:10:19;8.45;;;5.03;;
77573;SDS011;66710;48.868;9.080;2023-02-28T11:12:46;10.00;;;5.47;;
77573;SDS011;66710;48.868;9.080;2023-02-28T11:15:20;9.25;;;5.07;;
77573;SDS011;66710;48.868;9.080;2023-02-28T11:17:55;9.30;;;5.20;;
77573;SDS011;66710;48.868;9.080;2023-02-28T11:20:24;9.85;;;5.50;;
77573;SDS011;66710;48.868;9.080;2023-02-28T11:22:52;10.85;;;6.15;;
77573;SDS011;66710;48.868;9.080;2023-02-28T11:25:38;13.27;;;7.45;;
77573;SDS011;66710;48.868;9.080;2023-02-28T11:28:04;12.65;;;5.95;;
77573;SDS011;66710;48.868;9.080;2023-02-28T11:30:33;12.65;;;6.88;;
77573;SDS011;66710;48.868;9.080;2023-02-28T11:33:07;9.68;;;4.90;;
77573;SDS011;66710;48.868;9.080;2023-02-28T11:35:55;8.23;;;4.60;;
77573;SDS011;66710;48.868;9.080;2023-02-28T11:38:24;6.78;;;4.10;;
77573;SDS011;66710;48.868;9.080;2023-02-28T11:40:55;11.02;;;6.45;;
77573;SDS011;66710;48.868;9.080;2023-02-28T11:46:33;11.60;;;6.30;;
77573;SDS011;66710;48.868;9.080;2023-02-28T11:49:20;15.30;;;6.47;;
77573;SDS011;66710;48.868;9.080;2023-02-28T11:54:27;10.62;;;5.82;;
77573;SDS011;66710;48.868;9.080;2023-02-28T12:02:29;10.85;;;6.35;;
77573;SDS011;66710;48.868;9.080;2023-02-28T12:10:24;8.07;;;4.57;;
77573;SDS011;66710;48.868;9.080;2023-02-28T12:13:02;11.30;;;6.65;;
77573;SDS011;66710;48.868;9.080;2023-02-28T12:18:35;10.82;;;6.72;;
77573;SDS011;66710;48.868;9.080;2023-02-28T12:24:02;8.45;;;4.53;;
77573;SDS011;66710;48.868;9.080;2023-02-28T12:29:23;11.95;;;7.20;;
77573;SDS011;66710;48.868;9.080;2023-02-28T12:32:05;10.25;;;6.30;;
77573;SDS011;66710;48.868;9.080;2023-02-28T12:37:19;11.15;;;6.90;;
77573;SDS011;66710;48.868;9.080;2023-02-28T12:39:51;10.18;;;6.25;;
77573;SDS011;66710;48.868;9.080;2023-02-28T12:42:26;10.45;;;6.38;;
77573;SDS011;66710;48.868;9.080;2023-02-28T12:45:08;10.68;;;6.07;;
77573;SDS011;66710;48.868;9.080;2023-02-28T12:47:39;11.13;;;6.78;;
77573;SDS011;66710;48.868;9.080;2023-02-28T12:50:08;10.00;;;6.28;;
77573;SDS011;66710;48.868;9.080;2023-02-28T12:52:52;10.70;;;6.05;;
77573;SDS011;66710;48.868;9.080;2023-02-28T12:55:57;10.80;;;6.45;;
77573;SDS011;66710;48.868;9.080;2023-02-28T13:01:15;13.23;;;6.03;;
77573;SDS011;66710;48.868;9.080;2023-02-28T13:09:32;11.38;;;6.57;;
77573;SDS011;66710;48.868;9.080;2023-02-28T13:11:57;10.93;;;6.80;;
77573;SDS011;66710;48.868;9.080;2023-02-28T13:16:59;10.13;;;6.05;;
77573;SDS011;66710;48.868;9.080;2023-02-28T13:19:35;10.35;;;6.22;;
77573;SDS011;66710;48.868;9.080;2023-02-28T13:22:03;8.98;;;5.93;;
77573;SDS011;66710;48.868;9.080;2023-02-28T13:24:49;7.22;;;3.85;;
77573;SDS011;66710;48.868;9.080;2023-02-28T13:27:35;10.57;;;6.60;;
77573;SDS011;66710;48.868;9.080;2023-02-28T13:38:39;12.60;;;7.22;;
77573;SDS011;66710;48.868;9.080;2023-02-28T13:46:35;10.88;;;6.47;;
77573;SDS011;66710;48.868;9.080;2023-02-28T13:49:19;10.82;;;7.15;;
77573;SDS011;66710;48.868;9.080;2023-02-28T13:52:03;10.38;;;6.15;;
77573;SDS011;66710;48.868;9.080;2023-02-28T13:54:56;8.65;;;4.82;;
77573;SDS011;66710;48.868;9.080;2023-02-28T14:09:05;8.43;;;5.22;;
77573;SDS011;66710;48.868;9.080;2023-02-28T14:11:43;11.43;;;6.68;;
77573;SDS011;66710;48.868;9.080;2023-02-28T14:14:52;9.57;;;6.22;;
77573;SDS011;66710;48.868;9.080;2023-02-28T14:17:03;7.45;;;4.03;;
77573;SDS011;66710;48.868;9.080;2023-02-28T14:19:32;12.65;;;7.35;;
77573;SDS011;66710;48.868;9.080;2023-02-28T14:22:12;10.73;;;6.50;;
77573;SDS011;66710;48.868;9.080;2023-02-28T14:25:08;8.18;;;5.07;;
77573;SDS011;66710;48.868;9.080;2023-02-28T14:33:23;10.77;;;6.50;;
77573;SDS011;66710;48.868;9.080;2023-02-28T14:36:07;9.63;;;6.88;;
77573;SDS011;66710;48.868;9.080;2023-02-28T14:39:01;12.32;;;7.20;;
77573;SDS011;66710;48.868;9.080;2023-02-28T14:41:32;9.52;;;6.65;;
77573;SDS011;66710;48.868;9.080;2023-02-28T14:44:22;8.63;;;4.95;;
77573;SDS011;66710;48.868;9.080;2023-02-28T14:46:51;11.00;;;5.88;;
77573;SDS011;66710;48.868;9.080;2023-02-28T14:49:19;11.13;;;7.32;;
77573;SDS011;66710;48.868;9.080;2023-02-28T14:52:12;11.90;;;7.13;;
77573;SDS011;66710;48.868;9.080;2023-02-28T14:54:44;9.50;;;6.15;;
77573;SDS011;66710;48.868;9.080;2023-02-28T14:57:29;9.80;;;6.28;;
77573;SDS011;66710;48.868;9.080;2023-02-28T14:59:58;11.40;;;7.10;;
77573;SDS011;66710;48.868;9.080;2023-02-28T15:02:25;8.13;;;4.65;;
77573;SDS011;66710;48.868;9.080;2023-02-28T15:04:55;11.32;;;7.63;;
77573;SDS011;66710;48.868;9.080;2023-02-28T15:07:22;12.07;;;7.50;;
77573;SDS011;66710;48.868;9.080;2023-02-28T15:10:06;13.50;;;8.32;;
77573;SDS011;66710;48.868;9.080;2023-02-28T15:12:33;12.40;;;7.85;;
77573;SDS011;66710;48.868;9.080;2023-02-28T15:15:00;6.63;;;3.78;;
77573;SDS011;66710;48.868;9.080;2023-02-28T15:17:25;13.55;;;8.27;;
77573;SDS011;66710;48.868;9.080;2023-02-28T15:19:51;11.10;;;7.50;;
77573;SDS011;66710;48.868;9.080;2023-02-28T15:22:19;11.63;;;7.20;;
77573;SDS011;66710;48.868;9.080;2023-02-28T15:24:53;12.65;;;6.80;;
77573;SDS011;66710;48.868;9.080;2023-02-28T15:27:20;14.13;;;8.02;;
77573;SDS011;66710;48.868;9.080;2023-02-28T15:29:50;11.45;;;7.57;;
77573;SDS011;66710;48.868;9.080;2023-02-28T15:34:58;8.63;;;5.82;;
77573;SDS011;66710;48.868;9.080;2023-02-28T15:43:02;9.90;;;6.35;;
77573;SDS011;66710;48.868;9.080;2023-02-28T15:48:03;12.18;;;6.93;;
77573;SDS011;66710;48.868;9.080;2023-02-28T15:50:29;10.77;;;6.78;;
77573;SDS011;66710;48.868;9.080;2023-02-28T15:52:55;11.35;;;6.93;;
77573;SDS011;66710;48.868;9.080;2023-02-28T15:55:22;7.50;;;4.72;;
77573;SDS011;66710;48.868;9.080;2023-02-28T15:57:50;7.45;;;4.43;;
77573;SDS011;66710;48.868;9.080;2023-02-28T16:00:21;12.38;;;6.28;;
77573;SDS011;66710;48.868;9.080;2023-02-28T16:02:48;11.77;;;7.25;;
77573;SDS011;66710;48.868;9.080;2023-02-28T16:05:29;11.23;;;5.82;;
77573;SDS011;66710;48.868;9.080;2023-02-28T16:07:57;12.23;;;6.63;;
77573;SDS011;66710;48.868;9.080;2023-02-28T16:10:25;12.32;;;6.10;;
77573;SDS011;66710;48.868;9.080;2023-02-28T16:12:53;8.82;;;5.15;;
77573;SDS011;66710;48.868;9.080;2023-02-28T16:15:20;10.38;;;5.57;;
77573;SDS011;66710;48.868;9.080;2023-02-28T16:17:48;11.18;;;6.97;;
77573;SDS011;66710;48.868;9.080;2023-02-28T16:22:42;9.85;;;6.07;;
77573;SDS011;66710;48.868;9.080;2023-02-28T16:25:11;12.20;;;7.03;;
77573;SDS011;66710;48.868;9.080;2023-02-28T16:27:40;9.60;;;5.38;;
77573;SDS011;66710;48.868;9.080;2023-02-28T16:30:14;12.77;;;6.00;;
77573;SDS011;66710;48.868;9.080;2023-02-28T16:32:44;7.70;;;4.38;;
77573;SDS011;66710;48.868;9.080;2023-02-28T16:35:10;10.60;;;5.20;;
77573;SDS011;66710;48.868;9.080;2023-02-28T16:37:36;12.13;;;7.70;;
77573;SDS011;66710;48.868;9.080;2023-02-28T16:40:02;7.22;;;4.10;;
77573;SDS011;66710;48.868;9.080;2023-02-28T16:42:28;7.93;;;4.53;;
77573;SDS011;66710;48.868;9.080;2023-02-28T16:44:53;8.25;;;5.03;;
77573;SDS011;66710;48.868;9.080;2023-02-28T16:47:20;10.25;;;5.78;;
77573;SDS011;66710;48.868;9.080;2023-02-28T16:49:46;11.35;;;6.65;;
77573;SDS011;66710;48.868;9.080;2023-02-28T16:52:12;21.38;;;11.60;;
77573;SDS011;66710;48.868;9.080;2023-02-28T16:54:38;11.90;;;5.60;;
77573;SDS011;66710;48.868;9.080;2023-02-28T16:57:05;29.08;;;12.93;;
77573;SDS011;66710;48.868;9.080;2023-02-28T16:59:31;12.95;;;6.25;;
77573;SDS011;66710;48.868;9.080;2023-02-28T17:01:57;13.90;;;7.43;;
77573;SDS011;66710;48.868;9.080;2023-02-28T17:04:23;10.05;;;5.75;;
77573;SDS011;66710;48.868;9.080;2023-02-28T17:06:49;16.33;;;8.13;;